Glasgow, United Kingdom
Current Conditions -  °F | °C
As of 6:20 AM on Thursday 29 Jan 2015 (Local Time) from EGPF Reporting Station
Scattered Clouds Scattered Clouds  
Wind Chill: 27°   Ceiling: Unl
Heat Index: 32°   Visibility: 6mi
Dew Point: 28°   Wind: 5mph
Humidity: 87%   Direction: 250°WSW
Pressure: 28.88"   Gusts: NA
Location:  55.87°N, 4.26°W
Report Text: EGPF 290620Z 25004KT 9999 FEW004 SCT015 M00/M02 Q0978
Loading
Personal Weather Stations






























Interactive Weather Map New forecast layout! Learn more

10-Day Weather Forecast

Advertisements
Track Severe Weather on mobile